Hovedside
METAR-TAF:

METAR-TAF

Lufthavner :

Hammerfest, Norge

Hammerfest lufthavn

breddegrad: 70-40N, lengdegrad: 023-40E, høyde over havet: 8 m

Gjeldene værobservasjon

Denne rapporten ble laget for 34 minutter siden, klokken 18:20 UTC
Flau vind
Temperatur 8°C
Luftfuktighet 71%
Trykk 1025 hPa
Sikt 10 km eller mer
ingen skyer under 1500 m og ingen bygeskyer

METAR: ENHF 221820Z 00000KT CAVOK 08/03 Q1025 RMK WIND 1254FT 18005KT

Tid: 20:54 (18:54 UTC)

Varsel

Denne rapporten ble laget for 1 time og 54 minutter siden, klokken 17:00 UTC
Varsel gyldig fra 22. klokken 18 UTC til 23. klokken 03 UTC
Vind 5 kt fra Sør-sørvest
Sikt 10 km eller mer
ingen skyer under 1500 m og ingen bygeskyer

TAF: ENHF 221700Z 2218/2303 20005KT CAVOK

Værobservasjoner og værvarsel for over 4000 flyplasser (METAR- og TAF-rapporter).

Tilgjengelige stasjoner er representert av de røde og gule prikkene på kartet.

Hold musepekeren over prikken for å se navnet på stasjonen.

Klikk så for å se værobservasjoner og -varsler.

For å forandre kartet kan du klikke på den grønne knappen med svart kryss for å zoome inn, på den grønne knappen med strek for å zoome ut, eller på de grønne pilene for å se tilstøtende kart.


METAR-TAF: